Time;durP1;ratioP1;P1;durP2;ratioP2;P2;SDS_P1;SDS_P2;PMS_P1;PMS_P2;Temp;Humidity;BMP_temperature;BMP_pressure;BME280_temperature;BME280_humidity;BME280_pressure;Samples;Min_cycle;Max_cycle;Signal;HPM_P1;HPM_P2
2021/06/26 00:00:07;;;;;;;0.65;0.65;;;23.70;57.80;;;;;;5076916;28;20027;-75
2021/06/26 00:02:32;;;;;;;2.10;0.90;;;23.80;57.40;;;;;;5095255;28;20016;-75
2021/06/26 00:04:58;;;;;;;0.98;0.98;;;23.80;57.40;;;;;;5095271;28;20030;-75
2021/06/26 00:07:24;;;;;;;0.70;0.70;;;23.80;57.10;;;;;;5095313;28;20109;-75
2021/06/26 00:09:50;;;;;;;3.55;0.80;;;23.90;56.90;;;;;;5094760;28;20032;-75
2021/06/26 00:12:16;;;;;;;1.23;0.70;;;23.80;56.80;;;;;;5094651;28;20115;-75
2021/06/26 00:14:42;;;;;;;1.13;1.00;;;23.80;56.80;;;;;;5094954;28;20099;-75
2021/06/26 00:17:08;;;;;;;1.48;1.05;;;23.70;56.60;;;;;;5094971;28;20031;-75
2021/06/26 00:19:34;;;;;;;0.85;0.82;;;23.80;56.90;;;;;;5095184;28;20016;-75
2021/06/26 00:22:00;;;;;;;0.80;0.80;;;23.70;56.70;;;;;;5094755;28;20038;-75
2021/06/26 00:24:26;;;;;;;0.70;0.70;;;23.70;56.70;;;;;;5076706;28;20024;-75
2021/06/26 00:26:52;;;;;;;1.20;1.10;;;23.70;56.70;;;;;;5094843;28;20035;-75
2021/06/26 00:29:18;;;;;;;1.00;0.90;;;23.70;56.60;;;;;;5076131;28;20048;-75
2021/06/26 00:31:43;;;;;;;0.85;0.85;;;23.70;56.80;;;;;;5094816;28;20032;-75
2021/06/26 00:34:09;;;;;;;1.50;1.10;;;23.70;56.70;;;;;;5090380;28;20032;-75
2021/06/26 00:36:36;;;;;;;0.82;0.77;;;23.70;56.80;;;;;;5076730;28;20051;-75
2021/06/26 00:39:02;;;;;;;0.95;0.95;;;23.60;56.80;;;;;;5092048;28;20017;-75
2021/06/26 00:41:27;;;;;;;1.77;0.90;;;23.70;56.90;;;;;;5082784;28;20026;-75
2021/06/26 00:43:53;;;;;;;0.90;0.90;;;23.70;56.90;;;;;;5073401;28;20115;-75
2021/06/26 00:46:19;;;;;;;0.90;0.90;;;23.60;57.00;;;;;;5072371;28;20039;-75
2021/06/26 00:48:44;;;;;;;0.70;0.70;;;23.60;57.20;;;;;;5091061;28;20028;-75
2021/06/26 00:51:10;;;;;;;0.75;0.75;;;23.60;57.30;;;;;;5072875;28;20535;-75
2021/06/26 00:53:36;;;;;;;0.85;0.80;;;23.60;57.60;;;;;;5090751;28;20413;-75
2021/06/26 00:56:02;;;;;;;6.18;0.90;;;23.60;57.60;;;;;;5075322;28;20024;-75
2021/06/26 00:58:28;;;;;;;1.67;0.85;;;23.50;57.60;;;;;;5094535;28;20021;-75
2021/06/26 01:00:55;;;;;;;0.98;0.70;;;23.60;57.60;;;;;;5094211;28;20033;-75
2021/06/26 01:03:21;;;;;;;0.95;0.95;;;23.50;57.40;;;;;;5075931;28;20039;-75
2021/06/26 01:05:47;;;;;;;1.52;0.90;;;23.50;57.50;;;;;;5094334;28;20028;-75
2021/06/26 01:08:13;;;;;;;1.10;1.08;;;23.50;57.60;;;;;;5087492;28;20016;-75
2021/06/26 01:10:39;;;;;;;0.85;0.80;;;23.40;57.50;;;;;;5071857;28;20115;-74
2021/06/26 01:13:06;;;;;;;1.48;1.23;;;23.30;57.60;;;;;;5089592;28;20103;-75
2021/06/26 01:15:33;;;;;;;2.75;0.88;;;23.40;57.80;;;;;;5087782;28;20020;-75
2021/06/26 01:17:58;;;;;;;0.90;0.90;;;23.30;57.60;;;;;;5090528;28;20394;-75
2021/06/26 01:20:25;;;;;;;1.67;0.93;;;23.30;57.80;;;;;;5072511;28;20031;-75
2021/06/26 01:22:57;;;;;;;0.80;0.80;;;23.30;57.90;;;;;;5090307;28;20020;-75
2021/06/26 01:25:23;;;;;;;0.98;0.98;;;23.30;57.90;;;;;;5071914;28;20539;-74
2021/06/26 01:27:51;;;;;;;0.82;0.82;;;23.30;57.90;;;;;;5090695;28;20020;-75
2021/06/26 01:30:22;;;;;;;0.60;0.60;;;23.30;58.00;;;;;;5093518;28;20097;-76
2021/06/26 01:32:48;;;;;;;0.82;0.77;;;23.30;58.10;;;;;;5093761;28;20032;-76
2021/06/26 01:35:13;;;;;;;1.20;1.20;;;23.30;58.10;;;;;;5093741;28;20485;-76
2021/06/26 01:37:42;;;;;;;0.85;0.85;;;23.30;58.30;;;;;;5093691;28;20047;-76
2021/06/26 01:40:13;;;;;;;0.80;0.80;;;23.30;58.10;;;;;;5075261;28;20054;-75
2021/06/26 01:42:39;;;;;;;4.20;1.00;;;23.20;58.40;;;;;;5075153;28;20027;-76
2021/06/26 01:45:05;;;;;;;1.23;0.93;;;23.30;58.10;;;;;;5093035;28;20036;-76
2021/06/26 01:47:31;;;;;;;0.88;0.88;;;23.30;58.30;;;;;;5093558;28;20486;-76
2021/06/26 01:49:57;;;;;;;1.50;1.10;;;23.30;58.20;;;;;;5093320;28;20077;-75
2021/06/26 01:52:22;;;;;;;0.80;0.80;;;23.30;58.30;;;;;;5093175;28;20077;-76
2021/06/26 01:54:48;;;;;;;0.80;0.80;;;23.30;58.30;;;;;;5074750;28;20063;-76
2021/06/26 01:57:14;;;;;;;0.90;0.90;;;23.30;58.30;;;;;;5092815;28;20430;-76
2021/06/26 01:59:40;;;;;;;0.77;0.77;;;23.30;58.40;;;;;;5092701;28;20055;-76
2021/06/26 02:02:07;;;;;;;1.10;1.00;;;23.20;58.50;;;;;;5092847;28;20035;-76
2021/06/26 02:04:33;;;;;;;0.88;0.75;;;23.30;58.60;;;;;;5093094;28;20028;-76
2021/06/26 02:06:59;;;;;;;1.58;0.90;;;23.30;58.40;;;;;;5074878;28;20465;-75
2021/06/26 02:09:25;;;;;;;3.47;0.73;;;23.20;58.20;;;;;;5093119;28;20103;-75
2021/06/26 02:11:51;;;;;;;0.90;0.90;;;23.20;58.50;;;;;;5093117;28;20488;-75
2021/06/26 02:14:17;;;;;;;0.90;0.90;;;23.10;58.30;;;;;;5092963;28;20032;-75
2021/06/26 02:16:43;;;;;;;2.85;1.02;;;23.10;58.60;;;;;;5074958;28;20031;-76
2021/06/26 02:19:09;;;;;;;0.90;0.90;;;23.10;58.80;;;;;;5093040;28;20103;-76
2021/06/26 02:21:34;;;;;;;1.00;0.88;;;23.10;59.10;;;;;;5093003;28;20020;-76
2021/06/26 02:24:00;;;;;;;0.77;0.77;;;23.10;59.00;;;;;;5092970;28;20566;-76
2021/06/26 02:26:26;;;;;;;0.60;0.60;;;23.00;59.00;;;;;;5074768;28;20034;-76
2021/06/26 02:28:52;;;;;;;0.90;0.82;;;23.00;59.10;;;;;;5092392;28;20509;-76
2021/06/26 02:31:18;;;;;;;0.80;0.80;;;23.00;58.90;;;;;;5074624;28;20059;-76
2021/06/26 02:33:44;;;;;;;1.17;0.88;;;23.00;58.80;;;;;;5074574;28;20035;-76
2021/06/26 02:36:09;;;;;;;1.70;0.90;;;23.00;59.20;;;;;;5092872;28;20024;-76
2021/06/26 02:38:35;;;;;;;0.90;0.85;;;22.90;59.00;;;;;;5092995;28;20026;-75
2021/06/26 02:41:01;;;;;;;0.90;0.70;;;22.90;59.10;;;;;;5092922;28;20024;-76
2021/06/26 02:43:27;;;;;;;1.13;0.80;;;22.90;58.80;;;;;;5092239;28;20024;-76
2021/06/26 02:45:53;;;;;;;0.90;0.90;;;22.90;58.90;;;;;;5092904;28;20081;-76
2021/06/26 02:48:19;;;;;;;1.45;0.70;;;22.90;58.80;;;;;;5092726;28;20028;-76
2021/06/26 02:50:45;;;;;;;0.95;0.95;;;22.80;58.90;;;;;;5074797;28;20047;-76
2021/06/26 02:53:10;;;;;;;2.08;1.13;;;22.80;58.90;;;;;;5092375;28;20024;-76
2021/06/26 02:55:36;;;;;;;0.70;0.70;;;22.90;58.80;;;;;;5071573;28;20578;-76
2021/06/26 02:58:02;;;;;;;0.80;0.80;;;22.80;58.60;;;;;;5058491;28;20023;-75
2021/06/26 03:00:28;;;;;;;0.93;0.93;;;22.90;58.70;;;;;;5089940;28;20538;-76
2021/06/26 03:02:54;;;;;;;0.77;0.77;;;22.80;58.60;;;;;;5071028;28;20062;-76
2021/06/26 03:05:20;;;;;;;1.13;0.80;;;22.80;58.40;;;;;;5089564;28;20024;-76
2021/06/26 03:07:51;;;;;;;1.00;0.80;;;22.80;58.50;;;;;;5089697;28;20039;-76
2021/06/26 03:10:17;;;;;;;0.80;0.80;;;22.80;58.20;;;;;;5092651;28;20028;-76
2021/06/26 03:12:43;;;;;;;3.85;1.25;;;22.90;58.20;;;;;;5093516;28;20076;-75
2021/06/26 03:15:09;;;;;;;0.93;0.90;;;22.90;57.90;;;;;;5075263;28;20055;-76
2021/06/26 03:17:35;;;;;;;0.68;0.68;;;22.90;57.90;;;;;;5093446;28;20030;-75
2021/06/26 03:20:01;;;;;;;0.93;0.80;;;22.90;58.00;;;;;;5093958;28;20098;-76
2021/06/26 03:22:27;;;;;;;2.60;1.00;;;22.80;57.80;;;;;;5092400;28;20070;-75
2021/06/26 03:24:52;;;;;;;3.20;0.77;;;22.70;58.00;;;;;;5075197;28;20031;-76
2021/06/26 03:27:18;;;;;;;3.50;0.90;;;22.80;58.10;;;;;;5075952;28;20035;-76
2021/06/26 03:29:44;;;;;;;0.85;0.85;;;22.70;58.00;;;;;;5075415;28;20072;-76
2021/06/26 03:32:11;;;;;;;0.80;0.80;;;22.70;58.20;;;;;;5075805;28;20071;-76
2021/06/26 03:34:37;;;;;;;0.80;0.80;;;22.70;58.30;;;;;;5057744;28;20035;-76
2021/06/26 03:37:03;;;;;;;4.15;0.75;;;22.70;58.20;;;;;;5057598;28;20024;-75
2021/06/26 03:39:29;;;;;;;1.17;1.10;;;22.70;58.10;;;;;;5075712;28;20073;-76
2021/06/26 03:41:54;;;;;;;0.55;0.55;;;22.70;58.10;;;;;;5086265;28;20139;-76
2021/06/26 03:44:20;;;;;;;1.27;0.75;;;22.70;58.00;;;;;;5094951;28;20028;-75
2021/06/26 03:46:46;;;;;;;1.60;0.90;;;22.70;57.90;;;;;;5094977;28;20024;-75
2021/06/26 03:49:12;;;;;;;0.70;0.70;;;22.70;58.10;;;;;;5095099;28;20107;-75
2021/06/26 03:51:39;;;;;;;3.10;1.48;;;22.70;58.00;;;;;;5094529;28;20028;-76
2021/06/26 03:54:05;;;;;;;1.40;1.00;;;22.70;58.10;;;;;;5094559;28;20020;-75
2021/06/26 03:56:31;;;;;;;0.82;0.82;;;22.70;58.00;;;;;;5076480;28;20056;-76
2021/06/26 03:58:57;;;;;;;1.58;0.77;;;22.70;58.00;;;;;;5095412;28;20058;-76
2021/06/26 04:01:22;;;;;;;0.93;0.70;;;22.70;57.90;;;;;;5077266;28;20165;-76
2021/06/26 04:03:48;;;;;;;0.82;0.82;;;22.70;58.10;;;;;;5095388;28;20024;-76
2021/06/26 04:06:15;;;;;;;1.17;0.68;;;22.70;58.30;;;;;;5094659;28;20026;-76
2021/06/26 04:08:41;;;;;;;0.52;0.52;;;22.60;58.60;;;;;;5095469;28;20524;-76
2021/06/26 04:11:07;;;;;;;0.80;0.80;;;22.60;58.80;;;;;;5095253;28;20068;-75
2021/06/26 04:13:33;;;;;;;1.55;1.10;;;22.60;59.00;;;;;;5076986;28;20439;-76
2021/06/26 04:15:58;;;;;;;3.13;0.98;;;22.60;59.20;;;;;;5095311;28;20020;-76
2021/06/26 04:18:24;;;;;;;9.38;0.88;;;22.60;59.10;;;;;;5095256;28;20070;-76
2021/06/26 04:20:50;;;;;;;0.73;0.70;;;22.60;59.30;;;;;;5094690;28;20020;-76
2021/06/26 04:23:16;;;;;;;1.75;1.10;;;22.60;59.40;;;;;;5094830;28;20452;-76
2021/06/26 04:25:41;;;;;;;4.30;0.98;;;22.50;58.90;;;;;;5077036;28;20016;-76
2021/06/26 04:28:10;;;;;;;0.90;0.90;;;22.60;58.90;;;;;;5094981;28;20432;-76
2021/06/26 04:30:37;;;;;;;1.05;0.57;;;22.60;58.90;;;;;;5069275;28;20083;-76
2021/06/26 04:33:04;;;;;;;1.90;1.08;;;22.70;58.90;;;;;;5083228;28;20021;-77
2021/06/26 04:35:30;;;;;;;0.80;0.80;;;22.70;58.70;;;;;;5081643;28;20359;-76
2021/06/26 04:37:57;;;;;;;1.00;1.00;;;22.70;58.70;;;;;;5091843;28;20024;-76
2021/06/26 04:40:23;;;;;;;6.90;1.17;;;22.70;59.10;;;;;;5073765;28;20027;-76
2021/06/26 04:42:49;;;;;;;1.70;1.20;;;22.60;59.10;;;;;;5091559;28;20012;-76
2021/06/26 04:45:15;;;;;;;7.72;1.27;;;22.70;59.20;;;;;;5091943;28;20088;-78
2021/06/26 04:47:42;;;;;;;1.60;0.93;;;22.70;59.00;;;;;;5091965;28;20028;-76
2021/06/26 04:50:09;;;;;;;1.52;1.13;;;22.70;59.30;;;;;;5092522;28;20024;-76
2021/06/26 04:52:35;;;;;;;1.50;1.20;;;22.70;59.00;;;;;;5076131;28;20375;-76
2021/06/26 04:55:02;;;;;;;3.08;0.90;;;22.80;59.00;;;;;;5094167;28;20051;-76
2021/06/26 04:57:29;;;;;;;1.13;1.02;;;22.80;58.80;;;;;;5094328;28;20415;-76
2021/06/26 04:59:54;;;;;;;1.85;1.00;;;22.90;58.80;;;;;;5094335;28;20016;-76
2021/06/26 05:02:20;;;;;;;0.70;0.70;;;22.90;58.50;;;;;;5076426;28;20047;-76
2021/06/26 05:04:46;;;;;;;1.23;0.90;;;23.00;58.50;;;;;;5094541;28;20028;-76
2021/06/26 05:07:12;;;;;;;0.95;0.82;;;23.00;58.40;;;;;;5093705;28;20039;-76
2021/06/26 05:09:38;;;;;;;0.70;0.70;;;23.00;58.40;;;;;;5076094;28;20024;-76
2021/06/26 05:12:05;;;;;;;1.02;1.00;;;23.10;58.50;;;;;;5075690;28;20021;-76
2021/06/26 05:14:30;;;;;;;1.15;0.80;;;23.10;58.60;;;;;;5094079;28;20070;-75
2021/06/26 05:16:56;;;;;;;1.20;0.73;;;23.10;59.00;;;;;;5093806;28;20024;-76
2021/06/26 05:19:22;;;;;;;0.80;0.80;;;23.20;58.70;;;;;;5094023;28;20655;-76
2021/06/26 05:21:48;;;;;;;1.95;0.70;;;23.20;58.60;;;;;;5093977;28;20035;-76
2021/06/26 05:24:13;;;;;;;1.55;0.95;;;23.20;58.40;;;;;;5093985;28;20678;-76
2021/06/26 05:26:40;;;;;;;0.90;0.90;;;23.20;58.90;;;;;;5093827;28;20028;-76
2021/06/26 05:29:06;;;;;;;1.05;0.90;;;23.30;59.10;;;;;;5093723;28;20048;-76
2021/06/26 05:31:31;;;;;;;0.77;0.77;;;23.30;59.20;;;;;;5093109;28;20100;-75
2021/06/26 05:33:58;;;;;;;0.80;0.80;;;23.20;59.30;;;;;;5093557;28;20020;-76
2021/06/26 05:36:23;;;;;;;0.50;0.50;;;23.30;59.90;;;;;;5093711;28;20478;-76
2021/06/26 05:38:50;;;;;;;2.13;0.88;;;23.30;59.60;;;;;;5075434;28;20024;-76
2021/06/26 05:41:16;;;;;;;0.88;0.88;;;23.30;59.70;;;;;;5093419;28;20107;-76
2021/06/26 05:43:42;;;;;;;0.65;0.65;;;23.40;59.70;;;;;;5093622;28;20106;-75
2021/06/26 05:46:08;;;;;;;2.15;0.75;;;23.50;59.60;;;;;;5093511;28;20020;-75
2021/06/26 05:48:34;;;;;;;1.05;0.80;;;23.60;59.30;;;;;;5093379;28;20078;-76
2021/06/26 05:51:00;;;;;;;1.73;0.68;;;23.70;59.70;;;;;;5093374;28;20032;-76
2021/06/26 05:53:25;;;;;;;1.10;0.75;;;23.70;59.40;;;;;;5092646;28;20032;-76
2021/06/26 05:55:58;;;;;;;0.80;0.80;;;23.70;59.40;;;;;;5092741;28;20020;-75
2021/06/26 05:58:36;;;;;;;3.03;1.10;;;23.80;59.90;;;;;;5074023;28;20028;-74
2021/06/26 06:01:06;;;;;;;1.27;0.70;;;23.90;60.20;;;;;;5073921;28;20028;-75
2021/06/26 06:03:35;;;;;;;1.77;0.70;;;23.90;61.30;;;;;;5092185;28;20024;-74
2021/06/26 06:06:01;;;;;;;0.70;0.70;;;24.00;59.20;;;;;;5091646;28;20038;-75
2021/06/26 06:08:26;;;;;;;0.82;0.82;;;24.10;59.30;;;;;;5092251;28;20020;-75
2021/06/26 06:10:52;;;;;;;0.90;0.68;;;24.20;58.80;;;;;;5093019;28;20024;-75
2021/06/26 06:13:20;;;;;;;0.50;0.50;;;24.20;58.90;;;;;;5092411;28;20024;-74
2021/06/26 06:15:48;;;;;;;1.90;1.08;;;24.30;58.50;;;;;;5074083;28;20082;-75
2021/06/26 06:18:15;;;;;;;1.17;0.70;;;24.40;58.10;;;;;;5092990;28;20024;-77
2021/06/26 06:20:42;;;;;;;3.35;0.70;;;24.40;58.50;;;;;;5092765;28;20020;-75
2021/06/26 06:23:08;;;;;;;1.10;1.00;;;24.50;58.40;;;;;;5092815;28;20020;-75
2021/06/26 06:25:34;;;;;;;2.10;0.90;;;24.50;59.00;;;;;;5092983;28;20024;-75
2021/06/26 06:28:03;;;;;;;3.40;0.80;;;24.60;59.20;;;;;;5092757;28;20034;-75
2021/06/26 06:30:31;;;;;;;1.67;1.52;;;24.60;58.50;;;;;;5092599;28;20104;-75
2021/06/26 06:33:01;;;;;;;0.85;0.82;;;24.60;59.60;;;;;;5092973;28;20031;-75
2021/06/26 06:35:27;;;;;;;0.80;0.80;;;24.60;59.90;;;;;;5092580;28;20444;-75
2021/06/26 06:37:53;;;;;;;3.58;1.00;;;24.70;60.40;;;;;;5074282;28;20097;-75
2021/06/26 06:40:20;;;;;;;1.52;1.10;;;24.80;61.30;;;;;;5092566;28;20028;-75
2021/06/26 06:42:46;;;;;;;1.48;1.20;;;24.80;61.90;;;;;;5093880;28;20478;-75
2021/06/26 06:45:15;;;;;;;3.13;1.40;;;24.90;62.70;;;;;;5096700;28;20028;-75
2021/06/26 06:47:41;;;;;;;5.95;1.88;;;24.90;62.80;;;;;;5092286;28;20103;-75
2021/06/26 06:50:08;;;;;;;2.67;0.95;;;25.00;61.90;;;;;;5092809;28;20031;-75
2021/06/26 06:52:34;;;;;;;3.03;1.27;;;25.00;62.50;;;;;;5083161;28;20119;-75
2021/06/26 06:55:00;;;;;;;1.30;1.10;;;25.00;60.70;;;;;;5092875;28;20107;-75
2021/06/26 06:57:26;;;;;;;1.80;0.98;;;24.90;60.50;;;;;;5094047;28;20461;-75
2021/06/26 06:59:52;;;;;;;2.05;1.15;;;25.00;61.40;;;;;;5093115;28;20020;-75
2021/06/26 07:02:19;;;;;;;1.92;1.10;;;25.00;61.80;;;;;;5093408;28;20020;-75
2021/06/26 07:04:45;;;;;;;3.70;1.10;;;25.00;61.10;;;;;;5093510;28;20039;-75
2021/06/26 07:07:12;;;;;;;1.30;1.10;;;25.10;60.40;;;;;;5093131;28;20462;-76
2021/06/26 07:09:37;;;;;;;1.20;1.10;;;25.10;60.10;;;;;;5096129;28;20032;-75
2021/06/26 07:12:04;;;;;;;1.20;1.20;;;25.10;60.00;;;;;;5096672;28;20032;-76
2021/06/26 07:14:30;;;;;;;2.35;1.10;;;25.20;61.20;;;;;;5096303;28;20024;-76
2021/06/26 07:16:55;;;;;;;1.35;1.20;;;25.30;60.60;;;;;;5096304;28;20089;-76
2021/06/26 07:19:21;;;;;;;2.58;1.30;;;25.40;61.60;;;;;;5096157;28;20503;-76
2021/06/26 07:21:47;;;;;;;3.45;1.17;;;25.40;62.10;;;;;;5095328;28;20099;-76
2021/06/26 07:24:13;;;;;;;2.80;1.25;;;25.40;60.90;;;;;;5095269;28;20455;-76
2021/06/26 07:26:39;;;;;;;3.97;0.90;;;25.50;62.10;;;;;;5092176;28;20063;-77
2021/06/26 07:29:06;;;;;;;1.35;1.25;;;25.50;61.70;;;;;;5074599;28;20093;-76
2021/06/26 07:31:32;;;;;;;2.67;1.40;;;25.60;61.10;;;;;;5087319;28;20078;-76
2021/06/26 07:34:01;;;;;;;3.72;1.42;;;25.70;61.50;;;;;;5092071;28;20103;-76
2021/06/26 07:36:27;;;;;;;2.22;1.38;;;25.60;59.50;;;;;;5074748;28;20052;-77
2021/06/26 07:38:53;;;;;;;3.13;1.30;;;25.70;60.80;;;;;;5092601;28;20054;-77
2021/06/26 07:41:37;;;;;;;5.88;1.33;;;25.60;59.10;;;;;;5081497;28;20028;-76
2021/06/26 07:44:03;;;;;;;3.75;1.25;;;25.70;59.30;;;;;;5065169;28;20106;-76
2021/06/26 07:46:29;;;;;;;1.30;1.30;;;25.80;60.80;;;;;;5088977;28;20111;-77
2021/06/26 07:48:55;;;;;;;4.50;1.10;;;25.90;61.10;;;;;;5090184;28;20031;-75
2021/06/26 07:51:21;;;;;;;1.08;1.08;;;25.90;59.20;;;;;;5073475;28;20016;-75
2021/06/26 07:53:46;;;;;;;3.20;1.40;;;26.00;60.00;;;;;;5071158;28;20032;-76
2021/06/26 07:56:12;;;;;;;5.22;1.02;;;25.90;58.70;;;;;;5092095;28;20087;-75
2021/06/26 07:58:38;;;;;;;4.70;1.30;;;25.90;59.20;;;;;;5088920;28;20048;-76
2021/06/26 08:01:04;;;;;;;1.88;1.10;;;25.90;59.50;;;;;;5092172;28;20073;-76
2021/06/26 08:03:30;;;;;;;3.22;1.30;;;25.90;59.70;;;;;;5090013;28;20032;-76
2021/06/26 08:05:55;;;;;;;1.08;1.08;;;26.10;59.40;;;;;;5092221;28;20097;-75
2021/06/26 08:08:22;;;;;;;2.30;1.13;;;26.10;58.40;;;;;;5070886;28;20024;-75
2021/06/26 08:10:49;;;;;;;4.88;1.13;;;26.10;58.90;;;;;;5088428;28;20031;-76
2021/06/26 08:13:15;;;;;;;1.95;1.52;;;26.10;57.90;;;;;;5064874;28;20795;-75
2021/06/26 08:15:46;;;;;;;1.40;1.30;;;26.10;57.90;;;;;;5069674;28;20051;-75
2021/06/26 08:18:12;;;;;;;6.53;1.53;;;26.10;58.00;;;;;;5063931;28;20379;-75
2021/06/26 08:20:39;;;;;;;3.08;1.40;;;26.10;57.90;;;;;;5089503;28;20516;-75
2021/06/26 08:23:05;;;;;;;1.95;1.23;;;26.10;58.00;;;;;;5072109;28;20023;-75
2021/06/26 08:25:31;;;;;;;1.77;1.60;;;26.20;57.90;;;;;;5091934;28;20028;-75
2021/06/26 08:27:57;;;;;;;2.80;1.13;;;26.10;57.60;;;;;;5091457;28;20031;-76
2021/06/26 08:30:23;;;;;;;3.63;1.50;;;26.10;58.30;;;;;;5092304;28;20398;-78
2021/06/26 08:32:49;;;;;;;1.95;0.90;;;26.20;61.00;;;;;;5074007;28;20089;-77
2021/06/26 08:35:15;;;;;;;2.42;1.33;;;26.40;60.20;;;;;;5092005;28;20029;-77
2021/06/26 08:37:45;;;;;;;2.10;1.30;;;26.40;59.80;;;;;;5091723;28;20016;-75
2021/06/26 08:40:12;;;;;;;1.35;1.25;;;26.50;59.10;;;;;;5089160;28;20072;-76
2021/06/26 08:42:38;;;;;;;5.50;1.23;;;26.60;58.70;;;;;;5072043;28;20109;-76
2021/06/26 08:45:08;;;;;;;1.13;1.13;;;26.60;57.50;;;;;;5091281;28;20032;-77
2021/06/26 08:47:33;;;;;;;1.35;1.25;;;26.50;57.80;;;;;;5089266;28;20157;-76
2021/06/26 08:49:59;;;;;;;1.10;1.10;;;26.70;59.90;;;;;;5079423;28;20108;-76
2021/06/26 08:52:25;;;;;;;1.42;1.33;;;26.70;59.60;;;;;;5084202;28;20024;-76
2021/06/26 08:54:53;;;;;;;2.10;1.50;;;26.80;58.50;;;;;;5089107;28;20085;-75
2021/06/26 08:57:33;;;;;;;1.35;1.08;;;26.80;57.60;;;;;;5084843;28;20024;-76
2021/06/26 09:00:00;;;;;;;5.05;1.63;;;26.80;57.80;;;;;;5089059;28;20039;-75
2021/06/26 09:02:28;;;;;;;2.13;1.10;;;26.80;57.00;;;;;;5091068;28;20117;-76
2021/06/26 09:04:54;;;;;;;3.90;1.30;;;27.00;58.00;;;;;;5071312;28;20114;-75
2021/06/26 09:07:38;;;;;;;1.45;1.35;;;27.00;57.40;;;;;;5089240;28;20031;-77
2021/06/26 09:10:14;;;;;;;1.40;1.33;;;27.10;58.80;;;;;;5091138;28;20035;-78
2021/06/26 09:12:52;;;;;;;1.48;1.10;;;27.20;59.00;;;;;;5089706;28;20089;-78
2021/06/26 09:15:25;;;;;;;4.47;1.50;;;27.30;58.50;;;;;;5072927;28;20024;-77
2021/06/26 09:17:51;;;;;;;5.20;1.88;;;27.40;59.20;;;;;;5090964;28;20024;-76
2021/06/26 09:20:18;;;;;;;2.95;1.60;;;27.40;58.10;;;;;;5087486;28;20011;-77
2021/06/26 09:22:51;;;;;;;2.17;1.80;;;27.50;58.10;;;;;;5088675;28;20024;-76
2021/06/26 09:25:37;;;;;;;2.13;1.65;;;27.40;56.00;;;;;;5091091;28;20028;-76
2021/06/26 09:28:09;;;;;;;1.83;1.48;;;27.30;58.20;;;;;;5089660;28;20012;-77
2021/06/26 09:30:45;;;;;;;3.38;1.90;;;27.50;58.40;;;;;;5070430;28;20168;-76
2021/06/26 09:33:16;;;;;;;2.88;2.28;;;27.70;58.70;;;;;;5089045;28;20499;-76
2021/06/26 09:36:06;;;;;;;7.53;2.00;;;27.80;58.30;;;;;;5089863;28;20051;-77
2021/06/26 09:38:33;;;;;;;3.28;1.90;;;27.80;57.40;;;;;;5088165;28;20036;-76
2021/06/26 09:41:12;;;;;;;5.55;2.10;;;27.80;57.70;;;;;;5071438;28;20043;-78
2021/06/26 09:43:38;;;;;;;3.40;2.47;;;27.70;58.40;;;;;;5078392;28;20024;-77
2021/06/26 09:46:22;;;;;;;2.05;1.95;;;27.70;57.10;;;;;;5069565;28;20039;-76
2021/06/26 09:49:03;;;;;;;3.28;2.05;;;27.80;58.40;;;;;;5075141;28;20016;-77
2021/06/26 09:51:31;;;;;;;2.22;2.13;;;27.80;57.30;;;;;;5090866;28;20024;-76
2021/06/26 09:54:07;;;;;;;3.72;2.35;;;27.90;57.30;;;;;;5089947;28;20048;-76
2021/06/26 09:56:44;;;;;;;4.10;3.00;;;27.90;57.10;;;;;;5068385;28;20115;-76
2021/06/26 09:59:49;;;;;;;2.92;2.72;;;27.90;57.00;;;;;;5080801;28;20009;-76
2021/06/26 10:05:46;;;;;;;7.10;2.30;;;27.80;57.40;;;;;;4940067;29;20072;-77
2021/06/26 10:08:13;;;;;;;2.90;2.42;;;27.70;56.50;;;;;;5001952;28;20030;-77
2021/06/26 10:10:39;;;;;;;7.28;2.00;;;27.60;56.80;;;;;;5046902;28;20038;-76
2021/06/26 10:13:05;;;;;;;6.40;2.28;;;27.80;58.00;;;;;;5089907;28;20107;-77
2021/06/26 10:15:33;;;;;;;3.35;2.50;;;27.80;57.10;;;;;;5089075;28;20024;-76
2021/06/26 10:18:05;;;;;;;1.92;1.83;;;27.90;57.00;;;;;;5071264;28;20035;-76
2021/06/26 10:20:44;;;;;;;3.08;2.05;;;28.00;56.50;;;;;;5087543;28;20028;-76
2021/06/26 10:23:10;;;;;;;5.72;2.28;;;28.00;56.50;;;;;;5071792;28;20047;-76
2021/06/26 10:25:39;;;;;;;6.28;2.05;;;28.10;57.30;;;;;;5071060;28;20074;-76
2021/06/26 10:28:10;;;;;;;2.70;2.15;;;28.20;57.30;;;;;;5065626;28;20051;-76
2021/06/26 10:30:37;;;;;;;5.28;1.90;;;28.20;56.60;;;;;;5086835;28;20062;-75
2021/06/26 10:33:08;;;;;;;3.22;1.95;;;28.20;56.50;;;;;;5088910;28;20031;-75
2021/06/26 10:35:36;;;;;;;2.17;1.77;;;28.50;57.40;;;;;;5081178;28;20032;-75
2021/06/26 10:38:07;;;;;;;3.38;2.35;;;28.70;57.70;;;;;;5076709;28;20024;-74
2021/06/26 10:40:44;;;;;;;1.80;1.70;;;28.60;55.00;;;;;;5085419;28;20398;-75
2021/06/26 10:43:19;;;;;;;1.50;1.48;;;28.60;55.20;;;;;;5087371;28;20028;-76
2021/06/26 10:45:45;;;;;;;1.90;1.65;;;28.60;55.80;;;;;;5086808;28;20085;-76
2021/06/26 10:48:18;;;;;;;2.97;1.63;;;28.70;55.10;;;;;;5089557;28;20020;-75
2021/06/26 10:50:50;;;;;;;2.83;1.60;;;28.80;55.40;;;;;;5090356;28;20108;-77
2021/06/26 10:53:35;;;;;;;2.90;1.55;;;28.90;55.50;;;;;;5090153;28;20013;-76
2021/06/26 10:56:07;;;;;;;2.30;2.20;;;29.00;54.30;;;;;;5089702;28;20020;-76
2021/06/26 10:58:35;;;;;;;3.42;1.85;;;29.20;55.40;;;;;;5090105;28;20027;-75
2021/06/26 11:01:14;;;;;;;1.90;1.67;;;29.20;55.20;;;;;;5089664;28;20530;-77
2021/06/26 11:03:40;;;;;;;2.38;1.67;;;29.00;55.10;;;;;;5090068;28;20024;-77
2021/06/26 11:06:23;;;;;;;1.63;1.50;;;28.90;54.90;;;;;;5071568;28;20444;-76
2021/06/26 11:09:03;;;;;;;5.30;1.80;;;28.90;55.30;;;;;;5089375;28;20416;-76
2021/06/26 11:11:50;;;;;;;2.38;1.75;;;29.10;55.00;;;;;;5071313;28;20064;-76
2021/06/26 11:14:21;;;;;;;1.98;1.88;;;29.10;55.10;;;;;;5090118;28;20123;-77
2021/06/26 11:16:55;;;;;;;2.10;1.65;;;29.30;54.60;;;;;;5089521;28;21042;-75
2021/06/26 11:19:29;;;;;;;1.90;1.80;;;29.40;54.40;;;;;;5088959;28;20020;-76
2021/06/26 11:21:56;;;;;;;1.95;1.48;;;29.50;53.40;;;;;;5089216;28;20024;-74
2021/06/26 11:24:36;;;;;;;2.15;1.90;;;29.60;53.30;;;;;;5089326;28;20031;-74
2021/06/26 11:27:04;;;;;;;1.27;1.17;;;29.70;54.80;;;;;;5090028;28;20370;-75
2021/06/26 11:29:34;;;;;;;2.70;1.33;;;29.80;53.40;;;;;;5089882;28;20491;-75
2021/06/26 11:32:03;;;;;;;2.20;1.58;;;29.90;54.90;;;;;;5092865;28;20024;-76
2021/06/26 11:34:30;;;;;;;2.15;1.60;;;30.10;53.80;;;;;;5092518;28;20057;-74
2021/06/26 11:37:09;;;;;;;2.05;1.35;;;30.30;54.40;;;;;;5089783;28;20024;-74
2021/06/26 11:39:35;;;;;;;2.20;1.80;;;30.40;53.30;;;;;;5092820;28;20012;-75
2021/06/26 11:42:02;;;;;;;2.15;1.50;;;30.30;51.40;;;;;;5092154;28;20062;-74
2021/06/26 11:44:35;;;;;;;1.35;1.25;;;30.40;50.80;;;;;;5092458;28;20060;-74
2021/06/26 11:47:07;;;;;;;2.90;1.30;;;30.50;53.30;;;;;;5074859;28;20085;-74
2021/06/26 11:49:51;;;;;;;2.67;1.30;;;30.70;54.30;;;;;;5092476;28;20099;-74
2021/06/26 11:52:17;;;;;;;4.15;1.38;;;30.90;53.40;;;;;;5092624;28;20055;-74
2021/06/26 11:54:44;;;;;;;3.55;1.20;;;30.90;50.40;;;;;;5090655;28;20453;-74
2021/06/26 11:57:12;;;;;;;2.03;1.52;;;31.00;52.10;;;;;;5092030;28;20024;-74
2021/06/26 11:59:43;;;;;;;3.50;1.40;;;31.10;51.60;;;;;;5092308;28;20016;-74
2021/06/26 12:02:10;;;;;;;0.93;0.93;;;31.20;51.10;;;;;;5073673;28;20032;-75
2021/06/26 12:04:38;;;;;;;1.85;1.40;;;31.50;53.30;;;;;;5090763;28;20043;-75
2021/06/26 12:07:05;;;;;;;3.95;1.83;;;31.70;53.10;;;;;;5091071;28;20028;-75
2021/06/26 12:09:31;;;;;;;1.73;1.38;;;31.60;50.30;;;;;;5093379;28;20100;-74
2021/06/26 12:11:58;;;;;;;1.85;1.23;;;31.50;49.20;;;;;;5089993;28;20675;-74
2021/06/26 12:14:30;;;;;;;1.85;1.38;;;31.60;51.30;;;;;;5085061;28;20025;-75
2021/06/26 12:17:10;;;;;;;6.30;1.55;;;31.70;51.10;;;;;;5073049;28;20020;-75
2021/06/26 12:19:37;;;;;;;3.63;1.37;;;31.70;50.70;;;;;;5073431;28;20028;-74
2021/06/26 12:22:05;;;;;;;2.28;1.30;;;31.70;50.70;;;;;;5091837;28;20028;-74
2021/06/26 12:24:35;;;;;;;2.15;1.40;;;31.90;50.10;;;;;;5091754;28;20024;-74
2021/06/26 12:27:19;;;;;;;2.33;1.60;;;32.10;49.00;;;;;;5073084;28;20115;-74
2021/06/26 12:29:57;;;;;;;1.48;1.20;;;32.10;48.60;;;;;;5090602;28;20056;-74
2021/06/26 12:32:25;;;;;;;2.45;1.48;;;32.10;47.80;;;;;;5091618;28;20055;-74
2021/06/26 12:34:51;;;;;;;2.38;1.27;;;32.00;47.50;;;;;;5087033;28;20032;-74
2021/06/26 12:37:34;;;;;;;1.35;1.23;;;32.10;47.50;;;;;;5053731;28;20025;-74
2021/06/26 12:40:16;;;;;;;1.27;1.15;;;32.30;45.80;;;;;;5087132;28;20024;-74
2021/06/26 12:43:10;;;;;;;4.88;1.20;;;32.30;44.90;;;;;;5091415;28;20103;-74
2021/06/26 12:45:42;;;;;;;2.45;0.93;;;32.50;45.70;;;;;;5091373;28;20024;-74
2021/06/26 12:48:10;;;;;;;1.20;1.10;;;32.70;44.60;;;;;;5090967;28;20030;-74
2021/06/26 12:53:39;;;;;;;2.70;1.63;;;32.80;44.50;;;;;;5091484;28;20498;-74
2021/06/26 12:56:09;;;;;;;1.45;1.30;;;32.70;46.80;;;;;;5090895;28;20044;-74
2021/06/26 12:58:36;;;;;;;1.75;1.50;;;32.90;48.50;;;;;;5091026;28;20062;-74